Time;durP1;ratioP1;P1;durP2;ratioP2;P2;SDS_P1;SDS_P2;PMS_P1;PMS_P2;Temp;Humidity;BMP_temperature;BMP_pressure;BME280_temperature;BME280_humidity;BME280_pressure;Samples;Min_cycle;Max_cycle;Signal;HPM_P1;HPM_P2
2021/07/05 00:02:22;;;;;;;7.25;5.85;;;;;;;19.41;69.30;98493.22;5075761;28;20526;-79
2021/07/05 00:04:48;;;;;;;9.88;5.95;;;;;;;19.38;69.54;98489.03;5075554;28;20159;-78
2021/07/05 00:07:14;;;;;;;6.32;5.40;;;;;;;19.38;69.38;98494.47;5075632;28;20040;-80
2021/07/05 00:09:40;;;;;;;8.13;6.07;;;;;;;19.26;69.83;98498.78;5075959;28;20040;-80
2021/07/05 00:12:07;;;;;;;8.93;6.13;;;;;;;19.31;69.89;98503.59;5058438;28;20045;-80
2021/07/05 00:14:33;;;;;;;8.90;6.30;;;;;;;19.26;70.15;98497.94;5074881;28;20131;-80
2021/07/05 00:16:59;;;;;;;6.88;6.03;;;;;;;19.27;69.96;98497.72;5041603;28;20127;-81
2021/07/05 00:19:25;;;;;;;7.95;6.15;;;;;;;19.26;70.23;98506.91;5075618;28;20041;-82
2021/07/05 00:21:51;;;;;;;7.57;6.78;;;;;;;19.31;70.20;98506.28;5074256;28;20440;-81
2021/07/05 00:24:18;;;;;;;7.60;6.78;;;;;;;19.26;70.62;98506.91;5041559;28;20048;-78
2021/07/05 00:26:44;;;;;;;11.63;6.63;;;;;;;19.16;70.60;98503.69;5074258;28;20406;-80
2021/07/05 00:29:10;;;;;;;8.13;7.00;;;;;;;19.22;70.90;98515.59;5074370;28;20051;-77
2021/07/05 00:31:36;;;;;;;12.93;7.25;;;;;;;19.23;70.97;98523.53;5057687;28;20088;-78
2021/07/05 00:34:11;;;;;;;7.40;6.68;;;;;;;19.32;70.41;98518.78;5075804;28;20129;-79
2021/07/05 00:36:37;;;;;;;7.22;6.47;;;;;;;19.39;70.72;98520.50;5074365;28;20487;-78
2021/07/05 00:39:03;;;;;;;7.80;6.53;;;;;;;19.32;71.11;98513.38;5073853;28;20087;-79
2021/07/05 00:41:29;;;;;;;8.35;7.22;;;;;;;19.35;71.18;98526.53;5075585;28;20044;-80
2021/07/05 00:43:57;;;;;;;8.05;7.07;;;;;;;19.29;71.42;98516.47;5075211;28;20036;-82
2021/07/05 00:46:25;;;;;;;7.88;7.07;;;;;;;19.32;71.42;98527.75;5073888;28;20091;-82
2021/07/05 00:48:51;;;;;;;11.32;7.68;;;;;;;19.31;71.39;98517.13;5057506;28;20032;-80
2021/07/05 00:51:17;;;;;;;9.98;7.45;;;;;;;19.35;71.78;98526.53;5073948;28;20036;-81
2021/07/05 00:53:44;;;;;;;10.60;8.75;;;;;;;19.42;71.55;98527.41;5073589;28;20469;-79
2021/07/05 00:56:10;;;;;;;13.85;9.15;;;;;;;19.40;71.53;98534.88;5057674;28;20036;-78
2021/07/05 00:58:36;;;;;;;11.75;10.05;;;;;;;19.44;71.79;98528.03;5073249;28;20124;-80
2021/07/05 01:01:02;;;;;;;14.73;10.35;;;;;;;19.49;71.85;98530.16;5073547;28;20182;-80
2021/07/05 01:03:28;;;;;;;14.52;11.20;;;;;;;19.55;71.92;98532.91;5073779;28;20048;-77
2021/07/05 01:05:54;;;;;;;16.42;12.00;;;;;;;19.61;71.80;98532.09;5056415;28;20056;-78
2021/07/05 01:08:20;;;;;;;17.45;11.77;;;;;;;19.63;71.65;98531.94;5074709;28;20400;-78
2021/07/05 01:10:47;;;;;;;18.30;12.50;;;;;;;19.65;71.88;98541.53;5057156;28;20119;-77
2021/07/05 01:13:13;;;;;;;19.55;13.63;;;;;;;19.57;72.20;98549.81;5074478;28;20037;-77
2021/07/05 01:15:39;;;;;;;20.70;14.32;;;;;;;19.49;72.76;98541.84;5073258;28;20054;-77
2021/07/05 01:18:05;;;;;;;20.88;15.35;;;;;;;19.53;72.92;98553.13;5023678;28;20591;-77
2021/07/05 01:20:33;;;;;;;22.70;14.85;;;;;;;19.57;72.99;98549.81;5074209;28;20045;-79
2021/07/05 01:22:59;;;;;;;24.60;15.55;;;;;;;19.60;73.09;98551.28;5056812;28;20514;-76
2021/07/05 01:25:26;;;;;;;27.33;15.85;;;;;;;19.45;73.55;98554.13;5073149;28;20049;-78
2021/07/05 01:27:52;;;;;;;34.03;17.25;;;;;;;19.28;74.20;98563.59;5073320;28;20055;-76
2021/07/05 01:30:19;;;;;;;39.25;17.67;;;;;;;19.21;74.40;98551.88;5074325;28;20127;-78
2021/07/05 01:32:45;;;;;;;29.75;17.95;;;;;;;19.36;74.28;98560.72;5056105;28;20499;-76
2021/07/05 01:35:12;;;;;;;34.42;18.15;;;;;;;19.42;74.15;98565.34;5074013;28;20037;-77
2021/07/05 01:37:38;;;;;;;36.03;17.90;;;;;;;19.36;74.47;98560.72;5056214;28;20190;-80
2021/07/05 01:40:08;;;;;;;31.70;17.75;;;;;;;19.29;74.96;98554.41;5072838;28;20498;-79
2021/07/05 01:42:34;;;;;;;33.10;17.52;;;;;;;19.27;75.10;98572.75;5056374;28;20055;-79
2021/07/05 01:45:00;;;;;;;30.02;18.00;;;;;;;19.34;74.95;98569.06;5022973;28;20411;-77
2021/07/05 01:47:26;;;;;;;38.63;18.27;;;;;;;19.44;74.22;98571.41;5056246;28;20044;-78
2021/07/05 01:49:52;;;;;;;38.78;18.65;;;;;;;19.38;74.80;98572.22;5073892;28;20059;-77
2021/07/05 01:52:18;;;;;;;38.25;19.90;;;;;;;19.38;74.47;98574.94;5073954;28;20123;-78
2021/07/05 01:54:44;;;;;;;33.15;19.13;;;;;;;19.40;74.92;98573.66;5074001;28;20131;-79
2021/07/05 01:57:24;;;;;;;38.63;20.88;;;;;;;19.47;74.59;98571.00;5073788;28;20387;-79
2021/07/05 02:00:00;;;;;;;35.35;19.42;;;;;;;19.52;74.89;98579.41;5074075;28;20047;-79
2021/07/05 02:02:27;;;;;;;33.30;20.13;;;;;;;19.68;74.28;98580.97;5072709;28;20051;-81
2021/07/05 02:04:53;;;;;;;32.38;21.05;;;;;;;19.88;73.88;98589.22;5072296;28;20052;-78
2021/07/05 02:07:19;;;;;;;32.63;21.50;;;;;;;19.88;73.54;98581.91;5073456;28;20055;-79
2021/07/05 02:09:45;;;;;;;32.40;21.92;;;;;;;19.99;73.29;98576.97;5072764;28;20040;-79
2021/07/05 02:12:11;;;;;;;35.38;22.17;;;;;;;20.01;73.11;98581.16;5072248;28;20036;-80
2021/07/05 02:14:37;;;;;;;28.98;20.55;;;;;;;19.98;73.22;98586.97;5072240;28;20045;-79
2021/07/05 02:17:05;;;;;;;29.88;23.35;;;;;;;20.11;73.16;98584.31;5072572;28;20473;-79
2021/07/05 02:19:31;;;;;;;33.35;23.02;;;;;;;20.23;72.74;98579.13;5038971;28;20044;-78
2021/07/05 02:21:57;;;;;;;28.58;22.77;;;;;;;20.20;72.54;98585.00;5072212;28;20048;-79
2021/07/05 02:24:23;;;;;;;29.13;22.98;;;;;;;20.38;72.06;98592.53;5071766;28;20068;-78
2021/07/05 02:26:49;;;;;;;31.15;23.73;;;;;;;20.47;72.08;98595.94;5072049;28;20044;-78
2021/07/05 02:29:14;;;;;;;35.95;23.27;;;;;;;20.51;71.24;98592.63;5079425;28;20048;-79
2021/07/05 02:31:40;;;;;;;33.35;23.15;;;;;;;20.51;71.48;98603.50;5093003;28;20040;-79
2021/07/05 02:34:06;;;;;;;30.17;23.00;;;;;;;20.51;71.42;98598.06;5093211;28;20067;-78
2021/07/05 02:36:32;;;;;;;31.45;22.92;;;;;;;20.55;71.39;98602.03;5093373;28;20082;-80
2021/07/05 02:38:58;;;;;;;30.95;22.83;;;;;;;20.65;71.24;98614.38;5075911;28;20128;-79
2021/07/05 02:41:24;;;;;;;27.92;22.35;;;;;;;20.75;70.87;98609.38;5073060;28;20074;-78
2021/07/05 02:43:50;;;;;;;29.70;21.92;;;;;;;20.84;70.52;98613.59;5038550;28;20075;-76
2021/07/05 02:46:16;;;;;;;27.67;22.23;;;;;;;20.90;70.28;98603.78;5072910;28;20048;-77
2021/07/05 02:48:42;;;;;;;28.08;22.60;;;;;;;20.85;70.10;98601.69;5055302;28;20098;-78
2021/07/05 02:51:08;;;;;;;27.27;21.02;;;;;;;20.88;70.38;98604.00;5091717;28;20501;-77
2021/07/05 02:53:35;;;;;;;22.50;19.15;;;;;;;21.00;69.79;98605.03;5075343;28;20079;-77
2021/07/05 02:56:01;;;;;;;22.08;19.70;;;;;;;21.15;69.45;98610.28;5092878;28;20054;-77
2021/07/05 02:58:27;;;;;;;22.80;19.08;;;;;;;21.29;68.97;98608.41;5091618;28;20043;-79
2021/07/05 03:00:57;;;;;;;20.38;18.17;;;;;;;21.38;68.61;98618.03;5084394;28;20052;-80
2021/07/05 03:03:23;;;;;;;22.25;18.48;;;;;;;21.51;68.36;98611.75;5071748;28;20047;-80
2021/07/05 03:05:50;;;;;;;21.95;17.48;;;;;;;21.60;67.67;98607.78;5070978;28;20499;-78
2021/07/05 03:08:16;;;;;;;21.73;17.52;;;;;;;21.58;67.56;98620.75;5072966;28;20044;-82
2021/07/05 03:10:41;;;;;;;18.27;16.35;;;;;;;;;;5072032;28;20098;-79
2021/07/05 03:13:09;;;;;;;22.10;17.83;;;;;;;21.46;67.81;98612.38;5071418;28;20049;-77
2021/07/05 03:15:35;;;;;;;18.48;16.50;;;;;;;21.53;67.72;98615.94;5072185;28;20048;-80
2021/07/05 03:18:01;;;;;;;17.60;15.73;;;;;;;21.58;67.22;98616.13;5072724;28;20102;-78
2021/07/05 03:20:29;;;;;;;18.00;16.15;;;;;;;21.55;67.36;98611.13;5071600;28;20135;-80
2021/07/05 03:22:56;;;;;;;20.50;16.48;;;;;;;21.66;67.20;98620.50;5025714;28;20037;-77
2021/07/05 03:25:23;;;;;;;17.95;16.05;;;;;;;21.95;66.68;98618.38;5042521;28;20044;-79
2021/07/05 03:27:49;;;;;;;16.08;14.48;;;;;;;22.04;65.82;98617.94;5075405;28;20059;-77
2021/07/05 03:30:16;;;;;;;16.70;14.88;;;;;;;22.10;65.54;98615.38;5076571;28;20093;-77
2021/07/05 03:32:42;;;;;;;16.55;14.55;;;;;;;22.21;65.14;98615.59;5059128;28;20045;-79
2021/07/05 03:35:09;;;;;;;16.08;14.48;;;;;;;22.15;65.30;98616.44;5076596;28;20041;-80
2021/07/05 03:37:35;;;;;;;16.25;14.77;;;;;;;22.43;64.64;98615.28;5075315;28;20515;-76
2021/07/05 03:40:01;;;;;;;17.40;14.25;;;;;;;22.33;64.31;98613.03;5075068;28;20045;-78
2021/07/05 03:42:27;;;;;;;15.23;13.82;;;;;;;22.40;64.47;98613.00;5075113;28;20080;-79
2021/07/05 03:44:53;;;;;;;15.93;14.35;;;;;;;22.51;63.74;98617.75;5046838;28;20514;-77
2021/07/05 03:47:19;;;;;;;15.30;13.68;;;;;;;22.62;63.70;98613.53;5095325;28;20123;-78
2021/07/05 03:49:45;;;;;;;15.88;14.38;;;;;;;22.90;62.54;98618.56;5080997;28;20051;-80
2021/07/05 03:56:10;;;;;;;16.30;14.70;;;;;;;23.00;62.49;98617.06;5072573;28;20078;-78
2021/07/05 03:58:36;;;;;;;16.17;14.45;;;;;;;23.15;61.97;98626.81;5074254;28;20097;-80
2021/07/05 04:01:02;;;;;;;17.58;14.50;;;;;;;23.22;60.61;98622.16;5073344;28;20040;-81
2021/07/05 04:03:28;;;;;;;16.08;14.18;;;;;;;23.10;61.71;98618.50;5075840;28;20032;-79
2021/07/05 04:05:55;;;;;;;15.30;13.88;;;;;;;23.27;60.65;98619.59;5075757;28;20052;-80
2021/07/05 04:08:22;;;;;;;15.40;13.90;;;;;;;23.30;60.29;98619.16;5074544;28;20076;-78
2021/07/05 04:10:48;;;;;;;15.40;13.43;;;;;;;23.18;60.20;98620.94;5078070;28;20050;-79
2021/07/05 04:13:15;;;;;;;14.35;13.00;;;;;;;23.05;60.45;98621.84;5041601;28;20123;-76
2021/07/05 04:15:40;;;;;;;14.18;12.93;;;;;;;22.91;60.94;98625.72;5075906;28;20045;-77
2021/07/05 04:18:06;;;;;;;14.57;12.70;;;;;;;23.00;60.58;98633.41;5076087;28;20376;-77
2021/07/05 04:20:33;;;;;;;14.38;12.70;;;;;;;23.07;60.68;98629.81;5057922;28;20059;-77
2021/07/05 04:22:59;;;;;;;16.58;12.80;;;;;;;23.05;60.17;98618.28;5076065;28;20376;-79
2021/07/05 04:25:25;;;;;;;12.55;11.30;;;;;;;23.12;60.18;98621.81;5074379;28;20047;-77
2021/07/05 07:14:13;;;;;;;11.88;10.75;;;;;;;25.09;51.69;98602.59;5096789;27;1897828;-85
2021/07/05 07:16:42;;;;;;;14.93;10.80;;;;;;;25.43;50.15;98601.81;5124853;28;20402;-83
2021/07/05 07:21:34;;;;;;;13.27;10.70;;;;;;;26.22;48.98;98603.34;5131584;27;20561;-82
2021/07/05 07:24:00;;;;;;;11.48;10.38;;;;;;;26.36;48.61;98589.09;5130956;27;20046;-85
2021/07/05 07:26:26;;;;;;;10.88;9.88;;;;;;;26.84;47.46;98601.56;5129833;28;20039;-82
2021/07/05 07:28:52;;;;;;;11.02;9.80;;;;;;;26.85;46.52;98603.25;5130986;27;20045;-84
2021/07/05 07:31:19;;;;;;;10.43;9.40;;;;;;;26.89;46.77;98609.03;5120803;28;20145;-80
2021/07/05 07:33:46;;;;;;;10.80;9.73;;;;;;;26.84;46.36;98607.03;5106391;28;20075;-91
2021/07/05 07:36:11;;;;;;;11.88;10.70;;;;;;;27.12;45.96;98591.69;5090230;28;20040;-89
2021/07/05 07:38:45;;;;;;;10.68;9.57;;;;;;;27.28;46.17;98596.31;5087375;28;20040;-85
2021/07/05 07:41:11;;;;;;;13.38;9.63;;;;;;;27.31;46.33;98605.97;5059066;28;20137;-81
2021/07/05 07:43:37;;;;;;;26.65;10.23;;;;;;;27.04;47.88;98606.59;5055516;28;20040;-82
2021/07/05 07:46:03;;;;;;;10.88;9.77;;;;;;;26.58;49.56;98607.63;5089610;28;20101;-83
2021/07/05 07:48:30;;;;;;;9.95;8.70;;;;;;;26.54;49.60;98609.22;5038427;28;20044;-86
2021/07/05 07:50:56;;;;;;;16.70;9.35;;;;;;;26.28;50.31;98614.13;5089291;28;20044;-81
2021/07/05 07:53:22;;;;;;;10.80;7.93;;;;;;;26.42;50.36;98616.63;5086622;28;20046;-87
2021/07/05 07:55:49;;;;;;;12.43;8.18;;;;;;;26.07;50.74;98629.31;5076059;28;20487;-83
2021/07/05 07:58:15;;;;;;;8.93;7.18;;;;;;;25.79;51.69;98621.84;5072297;28;20318;-83
2021/07/05 08:00:41;;;;;;;15.77;7.50;;;;;;;25.75;51.78;98642.50;5071391;28;20041;-81
2021/07/05 08:03:09;;;;;;;8.27;7.13;;;;;;;25.60;52.45;98623.00;5088619;28;20470;-80
2021/07/05 08:05:35;;;;;;;7.85;7.00;;;;;;;26.11;51.49;98625.03;5071695;28;20106;-83
2021/07/05 08:08:01;;;;;;;10.18;6.68;;;;;;;26.68;49.75;98618.81;5088468;28;20154;-82
2021/07/05 08:10:27;;;;;;;26.70;6.80;;;;;;;27.10;48.28;98621.22;5089241;28;20048;-81
2021/07/05 08:12:53;;;;;;;9.18;6.70;;;;;;;27.06;48.06;98614.56;5090286;28;20071;-81
2021/07/05 08:15:19;;;;;;;10.38;6.70;;;;;;;27.01;47.45;98628.19;5092181;28;20490;-79
2021/07/05 08:17:45;;;;;;;23.90;6.88;;;;;;;26.49;48.56;98631.88;5091879;28;20043;-88
2021/07/05 08:20:12;;;;;;;77.40;8.45;;;;;;;26.48;48.60;98623.88;5074603;28;20079;-79
2021/07/05 08:22:38;;;;;;;22.40;6.57;;;;;;;26.56;48.14;98634.47;5110093;28;20043;-83
2021/07/05 08:25:04;;;;;;;9.75;5.95;;;;;;;26.73;48.20;98645.50;5097737;28;20092;-82
2021/07/05 08:27:33;;;;;;;20.40;6.82;;;;;;;26.72;47.66;98625.47;5062309;28;20534;-90
2021/07/05 08:29:59;;;;;;;11.18;6.50;;;;;;;26.81;47.93;98634.94;5045119;28;20040;-87
2021/07/05 08:32:25;;;;;;;12.70;6.30;;;;;;;27.23;47.13;98637.41;5096590;28;20135;-89
2021/07/05 08:34:51;;;;;;;6.68;5.97;;;;;;;27.02;47.20;98641.66;5047181;28;20046;-90
2021/07/05 08:37:17;;;;;;;14.48;5.95;;;;;;;27.16;46.59;98652.38;5083047;28;20135;-90
2021/07/05 08:39:43;;;;;;;11.40;5.75;;;;;;;27.00;47.20;98646.53;5078619;28;20054;-91
2021/07/05 08:42:09;;;;;;;12.05;5.50;;;;;;;26.98;47.23;98645.97;5065829;28;20065;-90
2021/07/05 08:44:35;;;;;;;7.53;5.30;;;;;;;27.33;46.53;98643.06;5083551;28;20043;-87
2021/07/05 08:47:02;;;;;;;5.47;4.82;;;;;;;27.28;46.14;98664.94;5078098;28;20043;-88
2021/07/05 08:49:27;;;;;;;6.88;5.03;;;;;;;27.28;46.56;98644.91;5027789;28;20062;-84
2021/07/05 08:51:55;;;;;;;6.05;4.97;;;;;;;27.72;45.81;98645.91;5077337;28;20039;-83
2021/07/05 08:54:21;;;;;;;6.40;4.07;;;;;;;28.23;44.62;98638.41;5060565;28;20071;-87
2021/07/05 08:56:47;;;;;;;4.18;3.83;;;;;;;28.32;44.28;98644.28;5061511;28;20040;-87
2021/07/05 08:59:15;;;;;;;8.60;3.90;;;;;;;28.39;43.57;98666.94;5077529;28;20420;-86
2021/07/05 09:01:41;;;;;;;7.70;3.83;;;;;;;28.44;43.82;98635.97;5060975;28;20127;-84
2021/07/05 09:04:11;;;;;;;8.40;4.30;;;;;;;28.14;43.97;98637.19;5076667;28;20489;-83
2021/07/05 09:06:38;;;;;;;6.10;3.38;;;;;;;27.66;44.77;98630.41;5077452;28;20409;-91
2021/07/05 09:09:09;;;;;;;6.88;3.92;;;;;;;27.58;45.10;98636.34;5080012;28;20127;-91
2021/07/05 09:11:44;;;;;;;5.50;3.97;;;;;;;27.48;45.43;98638.91;5044946;28;20583;-90
2021/07/05 09:14:18;;;;;;;5.47;3.88;;;;;;;27.34;46.16;98639.25;5044332;28;20159;-88
2021/07/05 09:16:45;;;;;;;10.60;3.90;;;;;;;27.39;45.64;98651.41;5062741;28;20154;-88
2021/07/05 09:19:27;;;;;;;6.75;3.97;;;;;;;27.40;45.84;98647.56;5078585;28;20549;-85
2021/07/05 09:21:55;;;;;;;7.15;4.47;;;;;;;26.84;47.01;98650.91;5078274;28;20055;-82
2021/07/05 09:24:35;;;;;;;7.88;4.38;;;;;;;26.95;46.88;98659.34;5059284;28;20048;-78
2021/07/05 09:27:07;;;;;;;7.10;4.22;;;;;;;27.10;46.78;98654.97;5094563;28;20047;-86
2021/07/05 09:29:33;;;;;;;7.00;4.60;;;;;;;26.86;47.15;98657.00;5059363;28;20389;-83
2021/07/05 09:32:05;;;;;;;13.85;4.15;;;;;;;27.50;46.17;98655.97;5075083;28;20489;-85
2021/07/05 09:34:33;;;;;;;5.57;4.13;;;;;;;27.61;45.77;98649.56;5059052;28;20040;-83
2021/07/05 09:37:37;;;;;;;6.28;4.32;;;;;;;28.07;44.82;98642.03;5058317;28;20039;-84
2021/07/05 09:40:03;;;;;;;8.15;4.53;;;;;;;27.98;44.46;98638.03;4995912;28;20046;-83
2021/07/05 09:42:43;;;;;;;10.48;4.47;;;;;;;27.86;44.72;98645.56;4996060;28;20140;-85
2021/07/05 09:45:30;;;;;;;5.43;4.07;;;;;;;27.90;44.57;98643.97;5049599;28;20139;-83
2021/07/05 09:48:25;;;;;;;11.88;4.30;;;;;;;27.52;45.21;98648.31;5076461;28;20044;-87
2021/07/05 09:50:58;;;;;;;11.32;4.20;;;;;;;27.92;44.72;98647.31;5076000;28;20046;-83
2021/07/05 09:53:35;;;;;;;8.25;4.00;;;;;;;28.24;43.65;98647.47;5076182;28;20036;-85
2021/07/05 09:56:20;;;;;;;9.52;3.88;;;;;;;28.40;43.25;98654.03;5076414;28;20117;-85
2021/07/05 09:59:09;;;;;;;8.20;3.38;;;;;;;28.32;43.44;98650.63;5076385;28;20047;-83
2021/07/05 10:01:48;;;;;;;6.47;3.95;;;;;;;28.90;42.23;98650.22;5059579;28;20109;-94
2021/07/05 10:04:23;;;;;;;5.20;3.30;;;;;;;28.73;42.30;98637.38;5075991;28;20079;-84
2021/07/05 10:06:49;;;;;;;4.82;3.58;;;;;;;28.29;43.07;98640.13;5075748;28;20046;-84
2021/07/05 10:09:34;;;;;;;17.30;3.90;;;;;;;28.45;42.84;98656.84;5093712;28;20542;-82
2021/07/05 10:12:21;;;;;;;5.60;3.88;;;;;;;28.95;42.10;98650.28;5093558;28;20055;-83
2021/07/05 10:15:08;;;;;;;6.00;3.42;;;;;;;29.40;40.81;98660.09;5058652;28;20090;-82
2021/07/05 10:17:39;;;;;;;4.60;2.97;;;;;;;29.19;41.03;98654.41;5059195;28;20044;-87
2021/07/05 10:20:08;;;;;;;7.95;3.10;;;;;;;29.16;41.55;98643.91;5059592;28;20505;-87
2021/07/05 10:22:34;;;;;;;7.93;3.25;;;;;;;29.35;40.77;98668.31;5058725;28;20055;-85
2021/07/05 10:25:00;;;;;;;5.80;3.45;;;;;;;29.51;40.43;98664.59;5095202;28;20050;-83
2021/07/05 10:27:26;;;;;;;5.28;3.20;;;;;;;30.09;39.33;98657.34;5077255;28;20422;-88
2021/07/05 10:29:52;;;;;;;6.30;3.30;;;;;;;29.80;39.11;98665.13;5042754;28;20138;-84
2021/07/05 10:32:18;;;;;;;9.35;3.50;;;;;;;30.12;38.63;98650.44;5093528;28;20040;-89
2021/07/05 10:34:45;;;;;;;6.85;2.97;;;;;;;30.21;39.05;98649.72;5059237;28;20060;-87
2021/07/05 10:37:13;;;;;;;7.05;3.00;;;;;;;30.52;38.03;98666.41;5042736;28;20502;-88
2021/07/05 10:39:40;;;;;;;11.95;3.22;;;;;;;30.93;36.26;98647.25;5059537;28;20498;-91
2021/07/05 10:42:37;;;;;;;5.38;3.15;;;;;;;30.43;37.58;98657.81;5075784;28;20176;-89
2021/07/05 10:45:08;;;;;;;3.60;2.50;;;;;;;30.69;37.19;98652.38;5059439;28;20044;-83
2021/07/05 10:47:53;;;;;;;5.07;2.90;;;;;;;31.48;36.30;98650.38;5025549;28;20040;-81
2021/07/05 10:50:47;;;;;;;5.55;2.75;;;;;;;31.17;36.72;98647.56;5059054;28;20078;-83
2021/07/05 10:53:34;;;;;;;8.63;2.53;;;;;;;31.21;36.18;98648.69;5073566;28;20039;-83
2021/07/05 10:56:01;;;;;;;11.75;2.80;;;;;;;30.68;36.65;98647.97;5079310;28;20101;-82
2021/07/05 10:58:34;;;;;;;4.00;2.55;;;;;;;30.55;37.00;98654.84;5075002;28;20513;-83
2021/07/05 11:01:02;;;;;;;4.45;2.35;;;;;;;30.54;37.13;98653.19;5075167;28;20036;-85
2021/07/05 11:03:36;;;;;;;7.60;2.60;;;;;;;30.38;37.11;98654.19;5093458;28;20047;-84
2021/07/05 11:06:10;;;;;;;5.70;2.63;;;;;;;30.61;36.82;98641.88;5074978;28;20039;-90
2021/07/05 11:08:43;;;;;;;6.45;2.70;;;;;;;30.11;37.55;98644.13;5059227;28;20040;-87
2021/07/05 11:11:22;;;;;;;8.77;2.50;;;;;;;29.48;38.60;98635.66;5041966;28;20063;-88
2021/07/05 11:14:08;;;;;;;10.57;2.60;;;;;;;29.26;39.29;98633.00;5074561;28;20064;-83
2021/07/05 11:16:58;;;;;;;7.90;2.42;;;;;;;29.34;39.73;98645.47;5074833;28;20047;-84
2021/07/05 11:19:47;;;;;;;3.80;1.95;;;;;;;29.17;39.50;98634.56;5116398;28;20042;-80
2021/07/05 11:22:22;;;;;;;8.98;2.20;;;;;;;29.47;38.44;98644.19;5074414;28;20093;-81
2021/07/05 11:25:03;;;;;;;4.95;2.30;;;;;;;30.76;37.08;98636.44;5060852;28;20107;-82
2021/07/05 11:27:32;;;;;;;12.25;2.40;;;;;;;30.96;36.25;98632.94;5062889;28;20090;-86
2021/07/05 11:30:30;;;;;;;8.63;2.38;;;;;;;30.41;36.15;98632.44;5094741;28;20075;-83
2021/07/05 11:32:58;;;;;;;;;;;;;;;29.60;37.84;98648.44;5112895;28;20067;-84
2021/07/05 11:35:43;;;;;;;9.60;2.47;;;;;;;29.82;37.44;98646.41;5094463;28;19926;-85
2021/07/05 11:38:24;;;;;;;8.13;2.10;;;;;;;30.87;35.31;98651.09;5097106;28;20044;-80
2021/07/05 11:41:18;;;;;;;6.65;1.90;;;;;;;32.01;33.42;98640.72;5111930;28;20160;-83
2021/07/05 11:43:55;;;;;;;9.05;1.73;;;;;;;32.81;32.74;98642.63;5110914;28;20131;-85
2021/07/05 11:46:27;;;;;;;3.92;2.05;;;;;;;33.89;31.19;98642.66;5113881;28;20056;-89
2021/07/05 11:49:00;;;;;;;5.50;2.05;;;;;;;34.77;29.71;98649.75;5116047;28;20052;-90
2021/07/05 11:51:31;;;;;;;22.63;2.10;;;;;;;33.89;30.04;98662.94;5062164;28;20089;-89
2021/07/05 11:54:02;;;;;;;7.35;2.00;;;;;;;32.50;31.30;98656.63;5095216;28;20039;-88
2021/07/05 11:56:36;;;;;;;3.58;1.80;;;;;;;31.62;33.07;98657.84;5078515;28;20110;-87
2021/07/05 11:59:08;;;;;;;8.65;1.90;;;;;;;32.19;32.47;98641.19;5096546;28;20039;-87
2021/07/05 12:01:34;;;;;;;2.38;1.65;;;;;;;32.76;31.84;98650.94;5100763;28;20104;-92
2021/07/05 12:04:01;;;;;;;3.08;2.05;;;;;;;33.65;30.80;98648.19;5082159;28;20048;-92
2021/07/05 12:06:27;;;;;;;6.28;2.10;;;;;;;33.79;29.57;98671.34;5116295;28;20409;-80
2021/07/05 12:09:08;;;;;;;9.00;1.80;;;;;;;33.49;30.57;98653.84;5116334;28;20073;-84
2021/07/05 12:11:43;;;;;;;8.57;2.00;;;;;;;34.31;29.27;98645.59;5082227;28;20118;-82
2021/07/05 12:14:10;;;;;;;9.38;2.20;;;;;;;34.84;28.61;98652.19;5081911;28;20151;-82
2021/07/05 12:16:37;;;;;;;14.00;2.42;;;;;;;33.68;29.95;98642.06;5081238;28;20044;-91
2021/07/05 12:19:03;;;;;;;10.32;1.67;;;;;;;33.87;29.64;98633.84;5100266;28;20058;-89
2021/07/05 12:21:33;;;;;;;9.70;2.00;;;;;;;34.53;29.19;98630.38;5123483;28;20044;-90
2021/07/05 12:24:17;;;;;;;5.28;1.80;;;;;;;34.96;28.56;98636.72;5065274;28;20039;-85
2021/07/05 12:27:01;;;;;;;13.68;2.05;;;;;;;34.88;28.19;98648.50;5065032;28;20538;-85
2021/07/05 12:29:45;;;;;;;8.27;1.80;;;;;;;35.21;27.79;98641.09;5081164;28;20036;-83
2021/07/05 12:32:23;;;;;;;6.63;2.05;;;;;;;34.30;28.55;98643.94;5066155;28;20084;-89
2021/07/05 12:35:03;;;;;;;8.75;1.60;;;;;;;33.82;29.58;98654.13;5083073;28;20130;-87
2021/07/05 12:37:46;;;;;;;2.80;1.60;;;;;;;34.35;28.90;98645.81;5101015;28;20040;-88
2021/07/05 12:40:20;;;;;;;6.18;1.40;;;;;;;34.84;28.08;98641.88;5084383;28;20126;-86
2021/07/05 12:42:46;;;;;;;9.23;1.50;;;;;;;34.81;28.27;98653.59;5085287;28;20086;-87
2021/07/05 12:45:16;;;;;;;9.13;1.70;;;;;;;35.01;27.87;98646.94;5118388;28;20418;-88
2021/07/05 12:47:48;;;;;;;14.60;1.88;;;;;;;34.59;28.19;98639.44;5082230;28;20043;-85
2021/07/05 12:50:24;;;;;;;8.90;1.90;;;;;;;33.05;30.48;98642.78;5081598;28;20131;-87
2021/07/05 12:53:03;;;;;;;13.20;1.65;;;;;;;34.32;28.73;98640.84;5064002;28;20036;-85
2021/07/05 12:55:30;;;;;;;8.43;1.77;;;;;;;34.23;28.45;98642.66;5115715;28;20130;-86
2021/07/05 12:57:55;;;;;;;12.48;2.03;;;;;;;32.55;30.44;98653.00;5097489;28;20079;-87
2021/07/05 13:00:23;;;;;;;8.38;1.90;;;;;;;31.60;32.42;98662.84;5098501;28;20083;-89
2021/07/05 13:02:50;;;;;;;5.00;1.60;;;;;;;31.60;32.17;98649.00;5064128;28;20032;-86
2021/07/05 13:05:19;;;;;;;9.20;2.05;;;;;;;32.97;30.69;98662.78;5097079;28;20040;-80
2021/07/05 13:07:54;;;;;;;8.52;1.73;;;;;;;34.26;28.78;98647.56;5115262;28;20051;-81
2021/07/05 13:10:30;;;;;;;20.00;1.98;;;;;;;34.05;28.65;98653.34;5063783;28;20134;-80
2021/07/05 13:13:03;;;;;;;8.30;1.65;;;;;;;33.73;28.47;98651.13;5063093;28;20374;-81
2021/07/05 13:15:32;;;;;;;11.18;1.80;;;;;;;32.94;29.89;98653.09;5080560;28;20180;-81
2021/07/05 13:18:10;;;;;;;21.05;2.08;;;;;;;32.71;30.00;98656.53;5079570;28;20513;-84
2021/07/05 13:20:36;;;;;;;15.57;1.90;;;;;;;33.01;29.89;98661.91;5097083;28;20409;-82
2021/07/05 13:23:02;;;;;;;11.25;1.60;;;;;;;33.03;29.67;98670.78;5079881;28;20031;-81
2021/07/05 13:25:28;;;;;;;5.57;1.77;;;;;;;33.75;29.13;98664.72;5079871;28;20039;-81
2021/07/05 13:27:54;;;;;;;10.95;1.75;;;;;;;34.46;27.50;98672.31;5096508;28;20475;-84
2021/07/05 13:30:27;;;;;;;7.13;1.50;;;;;;;34.49;27.74;98669.00;5063500;28;20047;-85
2021/07/05 13:32:58;;;;;;;12.95;2.20;;;;;;;34.13;27.60;98670.47;5063030;28;20096;-84
2021/07/05 13:35:34;;;;;;;6.25;1.80;;;;;;;32.98;29.25;98662.47;5073784;28;20092;-80
2021/07/05 13:38:03;;;;;;;12.25;2.55;;;;;;;32.73;29.86;98659.84;5058414;28;20545;-82
2021/07/05 13:40:30;;;;;;;12.20;1.92;;;;;;;32.66;29.78;98665.69;5075658;28;20056;-82
2021/07/05 13:43:04;;;;;;;4.95;1.85;;;;;;;33.28;29.24;98660.63;5042473;28;20213;-82
2021/07/05 13:45:33;;;;;;;4.88;1.80;;;;;;;32.85;29.26;98654.78;5075875;28;20051;-80
2021/07/05 13:48:05;;;;;;;7.20;2.35;;;;;;;33.02;29.44;98668.28;5076047;28;20042;-81
2021/07/05 13:50:45;;;;;;;12.63;2.55;;;;;;;34.00;28.21;98677.53;5043161;28;20514;-82
2021/07/05 13:53:28;;;;;;;5.32;1.95;;;;;;;34.20;27.59;98670.97;5093789;28;20051;-80
2021/07/05 13:56:06;;;;;;;11.10;2.15;;;;;;;34.46;27.05;98682.59;5059513;28;20062;-81
2021/07/05 13:58:43;;;;;;;5.57;2.40;;;;;;;34.17;27.18;98677.09;5042476;28;20470;-82
2021/07/05 14:01:16;;;;;;;6.43;2.45;;;;;;;34.00;27.56;98677.53;5093367;28;20126;-80
2021/07/05 14:03:43;;;;;;;10.52;2.33;;;;;;;33.72;28.17;98693.03;5059728;28;20139;-79
2021/07/05 14:06:10;;;;;;;4.18;2.30;;;;;;;34.03;27.58;98672.22;5093523;28;20075;-83
2021/07/05 14:08:37;;;;;;;3.85;2.33;;;;;;;33.64;27.67;98686.16;5075580;28;20048;-81
2021/07/05 14:11:04;;;;;;;8.88;2.45;;;;;;;33.65;28.43;98689.75;5094277;28;20087;-82
2021/07/05 14:13:32;;;;;;;2.50;2.20;;;;;;;34.13;27.48;98678.81;5074974;28;20097;-85
2021/07/05 14:15:58;;;;;;;5.80;2.60;;;;;;;34.21;27.63;98678.16;5075449;28;20044;-83
2021/07/05 14:18:24;;;;;;;6.05;2.47;;;;;;;35.03;26.69;98687.19;5093296;28;20044;-83
2021/07/05 14:20:51;;;;;;;11.15;3.50;;;;;;;35.47;25.56;98688.75;5075869;28;20050;-83
2021/07/05 14:23:17;;;;;;;6.88;3.08;;;;;;;35.33;26.24;98696.19;5076788;28;20043;-81
2021/07/05 14:25:46;;;;;;;8.38;3.17;;;;;;;34.94;25.99;98680.63;5076253;28;20040;-81
2021/07/05 14:28:12;;;;;;;19.83;3.20;;;;;;;34.47;26.84;98681.47;5093329;28;20055;-82
2021/07/05 14:30:38;;;;;;;7.22;3.15;;;;;;;34.29;26.95;98683.06;5075207;28;20394;-82
2021/07/05 14:33:04;;;;;;;7.32;3.38;;;;;;;34.45;26.64;98678.97;5074812;28;20418;-81